sensor_id;sensor_type;location;lat;lon;timestamp;pressure;altitude;pressure_sealevel;temperature;humidity
39739;BME280;25422;48.286;8.484;2023-06-22T00:01:01;94182.50;;;17.31;100.00
39739;BME280;25422;48.286;8.484;2023-06-22T00:03:27;94190.69;;;17.23;100.00
39739;BME280;25422;48.286;8.484;2023-06-22T00:05:53;94195.03;;;17.04;100.00
39739;BME280;25422;48.286;8.484;2023-06-22T00:08:19;94194.66;;;16.94;100.00
39739;BME280;25422;48.286;8.484;2023-06-22T00:10:45;94189.78;;;16.91;100.00
39739;BME280;25422;48.286;8.484;2023-06-22T00:13:11;94189.59;;;16.92;100.00
39739;BME280;25422;48.286;8.484;2023-06-22T00:15:38;94172.72;;;16.86;100.00
39739;BME280;25422;48.286;8.484;2023-06-22T00:18:06;94182.88;;;16.83;100.00
39739;BME280;25422;48.286;8.484;2023-06-22T00:20:31;94191.03;;;16.68;100.00
39739;BME280;25422;48.286;8.484;2023-06-22T00:22:58;94197.16;;;16.62;100.00
39739;BME280;25422;48.286;8.484;2023-06-22T00:25:25;94189.81;;;16.64;100.00
39739;BME280;25422;48.286;8.484;2023-06-22T00:27:50;94191.03;;;16.68;100.00
39739;BME280;25422;48.286;8.484;2023-06-22T00:30:16;94196.94;;;16.70;100.00
39739;BME280;25422;48.286;8.484;2023-06-22T00:32:43;94205.25;;;16.67;100.00
39739;BME280;25422;48.286;8.484;2023-06-22T00:35:08;94208.94;;;16.66;100.00
39739;BME280;25422;48.286;8.484;2023-06-22T00:37:35;94202.44;;;16.62;100.00
39739;BME280;25422;48.286;8.484;2023-06-22T00:40:01;94201.22;;;16.58;100.00
39739;BME280;25422;48.286;8.484;2023-06-22T00:42:27;94209.53;;;16.55;100.00
39739;BME280;25422;48.286;8.484;2023-06-22T00:44:52;94206.53;;;16.51;100.00
39739;BME280;25422;48.286;8.484;2023-06-22T00:47:18;94203.06;;;16.50;100.00
39739;BME280;25422;48.286;8.484;2023-06-22T00:49:44;94195.13;;;16.44;100.00
39739;BME280;25422;48.286;8.484;2023-06-22T00:52:11;94201.06;;;16.32;100.00
39739;BME280;25422;48.286;8.484;2023-06-22T00:54:40;94200.03;;;16.27;100.00
39739;BME280;25422;48.286;8.484;2023-06-22T00:57:09;94201.47;;;16.23;100.00
39739;BME280;25422;48.286;8.484;2023-06-22T00:59:36;94202.47;;;16.22;100.00
39739;BME280;25422;48.286;8.484;2023-06-22T01:02:02;94199.41;;;16.25;100.00
39739;BME280;25422;48.286;8.484;2023-06-22T01:04:34;94199.22;;;16.26;100.00
39739;BME280;25422;48.286;8.484;2023-06-22T01:07:17;94198.00;;;16.29;100.00
39739;BME280;25422;48.286;8.484;2023-06-22T01:10:04;94187.84;;;16.32;100.00
39739;BME280;25422;48.286;8.484;2023-06-22T01:12:38;94186.63;;;16.35;100.00
39739;BME280;25422;48.286;8.484;2023-06-22T01:15:18;94201.25;;;16.44;100.00
39739;BME280;25422;48.286;8.484;2023-06-22T01:17:48;94213.84;;;16.42;100.00
39739;BME280;25422;48.286;8.484;2023-06-22T01:20:15;94208.56;;;16.35;100.00
39739;BME280;25422;48.286;8.484;2023-06-22T01:22:59;94202.28;;;16.30;100.00
39739;BME280;25422;48.286;8.484;2023-06-22T01:31:13;94182.59;;;16.19;100.00
39739;BME280;25422;48.286;8.484;2023-06-22T01:33:42;94184.63;;;16.10;100.00
39739;BME280;25422;48.286;8.484;2023-06-22T01:36:08;94183.00;;;16.02;100.00
39739;BME280;25422;48.286;8.484;2023-06-22T01:38:35;94195.78;;;15.99;100.00
39739;BME280;25422;48.286;8.484;2023-06-22T01:41:02;94190.91;;;15.96;100.00
39739;BME280;25422;48.286;8.484;2023-06-22T01:43:29;94173.25;;;16.03;100.00
39739;BME280;25422;48.286;8.484;2023-06-22T01:45:56;94181.38;;;16.08;100.00
39739;BME280;25422;48.286;8.484;2023-06-22T01:48:22;94180.56;;;16.08;100.00
39739;BME280;25422;48.286;8.484;2023-06-22T01:50:48;94187.06;;;16.05;100.00
39739;BME280;25422;48.286;8.484;2023-06-22T01:53:14;94191.13;;;16.01;100.00
39739;BME280;25422;48.286;8.484;2023-06-22T01:55:39;94185.22;;;15.99;100.00
39739;BME280;25422;48.286;8.484;2023-06-22T01:58:05;94183.41;;;15.99;100.00
39739;BME280;25422;48.286;8.484;2023-06-22T02:00:37;94182.56;;;15.99;100.00
39739;BME280;25422;48.286;8.484;2023-06-22T02:03:08;94191.91;;;15.95;100.00
39739;BME280;25422;48.286;8.484;2023-06-22T02:05:44;94193.75;;;16.01;100.00
39739;BME280;25422;48.286;8.484;2023-06-22T02:08:23;94180.56;;;16.01;100.00
39739;BME280;25422;48.286;8.484;2023-06-22T02:10:50;94179.56;;;16.02;100.00
39739;BME280;25422;48.286;8.484;2023-06-22T02:13:17;94178.94;;;16.00;100.00
39739;BME280;25422;48.286;8.484;2023-06-22T02:15:43;94195.19;;;15.97;100.00
39739;BME280;25422;48.286;8.484;2023-06-22T02:18:12;94189.47;;;15.93;100.00
39739;BME280;25422;48.286;8.484;2023-06-22T02:20:38;94180.16;;;15.97;100.00
39739;BME280;25422;48.286;8.484;2023-06-22T02:23:05;94179.13;;;15.98;100.00
39739;BME280;25422;48.286;8.484;2023-06-22T02:25:34;94170.59;;;15.96;100.00
39739;BME280;25422;48.286;8.484;2023-06-22T02:28:00;94180.56;;;15.88;100.00
39739;BME280;25422;48.286;8.484;2023-06-22T02:30:26;94182.38;;;15.87;100.00
39739;BME280;25422;48.286;8.484;2023-06-22T02:32:51;94164.31;;;15.84;100.00
39739;BME280;25422;48.286;8.484;2023-06-22T02:35:27;94156.59;;;15.89;100.00
39739;BME280;25422;48.286;8.484;2023-06-22T02:37:59;94160.03;;;15.90;100.00
39739;BME280;25422;48.286;8.484;2023-06-22T02:40:25;94170.81;;;15.95;100.00
39739;BME280;25422;48.286;8.484;2023-06-22T02:42:50;94177.91;;;15.88;100.00
39739;BME280;25422;48.286;8.484;2023-06-22T02:45:16;94171.84;;;15.80;100.00
39739;BME280;25422;48.286;8.484;2023-06-22T02:47:42;94165.53;;;15.88;100.00
39739;BME280;25422;48.286;8.484;2023-06-22T02:50:08;94158.22;;;15.83;100.00
39739;BME280;25422;48.286;8.484;2023-06-22T02:52:34;94161.06;;;15.82;100.00
39739;BME280;25422;48.286;8.484;2023-06-22T02:54:59;94163.25;;;15.78;100.00
39739;BME280;25422;48.286;8.484;2023-06-22T02:57:25;94162.03;;;15.74;100.00
39739;BME280;25422;48.286;8.484;2023-06-22T02:59:51;94155.75;;;15.68;100.00
39739;BME280;25422;48.286;8.484;2023-06-22T03:02:16;94144.59;;;15.73;100.00
39739;BME280;25422;48.286;8.484;2023-06-22T03:04:43;94154.13;;;15.74;100.00
39739;BME280;25422;48.286;8.484;2023-06-22T03:07:08;94150.09;;;15.85;100.00
39739;BME280;25422;48.286;8.484;2023-06-22T03:09:34;94146.88;;;15.83;100.00
39739;BME280;25422;48.286;8.484;2023-06-22T03:11:59;94141.78;;;15.81;100.00
39739;BME280;25422;48.286;8.484;2023-06-22T03:14:31;94149.47;;;15.76;100.00
39739;BME280;25422;48.286;8.484;2023-06-22T03:16:57;94151.06;;;15.71;100.00
39739;BME280;25422;48.286;8.484;2023-06-22T03:19:31;94160.41;;;15.66;100.00
39739;BME280;25422;48.286;8.484;2023-06-22T03:22:00;94148.44;;;15.57;100.00
39739;BME280;25422;48.286;8.484;2023-06-22T03:24:25;94143.56;;;15.54;100.00
39739;BME280;25422;48.286;8.484;2023-06-22T03:26:53;94145.59;;;15.45;100.00
39739;BME280;25422;48.286;8.484;2023-06-22T03:29:20;94152.47;;;15.40;100.00
39739;BME280;25422;48.286;8.484;2023-06-22T03:31:48;94148.78;;;15.34;100.00
39739;BME280;25422;48.286;8.484;2023-06-22T03:34:14;94153.06;;;15.35;100.00
39739;BME280;25422;48.286;8.484;2023-06-22T03:36:40;94149.63;;;15.34;100.00
39739;BME280;25422;48.286;8.484;2023-06-22T03:39:05;94154.28;;;15.39;100.00
39739;BME280;25422;48.286;8.484;2023-06-22T03:41:31;94138.25;;;15.41;100.00
39739;BME280;25422;48.286;8.484;2023-06-22T03:43:56;94132.41;;;15.45;100.00
39739;BME280;25422;48.286;8.484;2023-06-22T03:46:21;94136.66;;;15.46;100.00
39739;BME280;25422;48.286;8.484;2023-06-22T03:48:47;94133.22;;;15.52;100.00
39739;BME280;25422;48.286;8.484;2023-06-22T03:51:12;94127.75;;;15.61;100.00
39739;BME280;25422;48.286;8.484;2023-06-22T03:53:38;94131.19;;;15.68;100.00
39739;BME280;25422;48.286;8.484;2023-06-22T03:56:03;94134.03;;;15.73;100.00
39739;BME280;25422;48.286;8.484;2023-06-22T03:58:28;94135.88;;;15.79;100.00
39739;BME280;25422;48.286;8.484;2023-06-22T04:00:58;94132.66;;;15.84;100.00
39739;BME280;25422;48.286;8.484;2023-06-22T04:03:23;94129.22;;;15.90;100.00
39739;BME280;25422;48.286;8.484;2023-06-22T04:05:48;94128.19;;;15.98;100.00
39739;BME280;25422;48.286;8.484;2023-06-22T04:08:14;94132.22;;;16.07;100.00
39739;BME280;25422;48.286;8.484;2023-06-22T04:10:40;94124.50;;;16.19;100.00
39739;BME280;25422;48.286;8.484;2023-06-22T04:13:05;94124.69;;;16.31;100.00
39739;BME280;25422;48.286;8.484;2023-06-22T04:15:31;94125.69;;;16.43;100.00
39739;BME280;25422;48.286;8.484;2023-06-22T04:17:56;94128.50;;;16.55;100.00
39739;BME280;25422;48.286;8.484;2023-06-22T04:20:22;94124.00;;;16.62;100.00
39739;BME280;25422;48.286;8.484;2023-06-22T04:22:51;94129.03;;;16.77;100.00
39739;BME280;25422;48.286;8.484;2023-06-22T04:25:16;94133.84;;;17.00;100.00
39739;BME280;25422;48.286;8.484;2023-06-22T04:27:42;94114.09;;;17.10;100.00
39739;BME280;25422;48.286;8.484;2023-06-22T04:30:07;94104.50;;;17.15;100.00
39739;BME280;25422;48.286;8.484;2023-06-22T04:32:34;94098.78;;;17.18;100.00
39739;BME280;25422;48.286;8.484;2023-06-22T04:35:02;94106.72;;;17.18;100.00
39739;BME280;25422;48.286;8.484;2023-06-22T04:37:29;94103.41;;;17.30;100.00
39739;BME280;25422;48.286;8.484;2023-06-22T04:39:55;94092.53;;;17.45;100.00
39739;BME280;25422;48.286;8.484;2023-06-22T04:42:20;94096.38;;;17.74;100.00
39739;BME280;25422;48.286;8.484;2023-06-22T04:44:46;94096.56;;;18.05;100.00
39739;BME280;25422;48.286;8.484;2023-06-22T04:47:11;94102.03;;;18.28;100.00
39739;BME280;25422;48.286;8.484;2023-06-22T04:49:37;94105.06;;;18.32;100.00
39739;BME280;25422;48.286;8.484;2023-06-22T04:52:04;94102.72;;;18.42;100.00
39739;BME280;25422;48.286;8.484;2023-06-22T04:54:30;94111.41;;;18.49;100.00
39739;BME280;25422;48.286;8.484;2023-06-22T04:56:59;94105.22;;;18.74;100.00
39739;BME280;25422;48.286;8.484;2023-06-22T04:59:26;94109.41;;;18.82;100.00
39739;BME280;25422;48.286;8.484;2023-06-22T05:01:56;94109.22;;;19.02;100.00
39739;BME280;25422;48.286;8.484;2023-06-22T05:04:22;94110.78;;;19.21;100.00
39739;BME280;25422;48.286;8.484;2023-06-22T05:06:51;94104.50;;;19.46;100.00
39739;BME280;25422;48.286;8.484;2023-06-22T05:09:18;94117.66;;;19.41;100.00
39739;BME280;25422;48.286;8.484;2023-06-22T05:11:44;94110.94;;;19.69;100.00
39739;BME280;25422;48.286;8.484;2023-06-22T05:14:09;94111.06;;;19.74;100.00
39739;BME280;25422;48.286;8.484;2023-06-22T05:16:36;94101.88;;;20.00;100.00
39739;BME280;25422;48.286;8.484;2023-06-22T05:19:02;94109.72;;;20.07;100.00
39739;BME280;25422;48.286;8.484;2023-06-22T05:21:30;94103.09;;;19.74;100.00
39739;BME280;25422;48.286;8.484;2023-06-22T05:23:55;94108.34;;;19.93;100.00
39739;BME280;25422;48.286;8.484;2023-06-22T05:26:25;94098.94;;;19.78;100.00
39739;BME280;25422;48.286;8.484;2023-06-22T05:28:51;94093.69;;;20.14;100.00
39739;BME280;25422;48.286;8.484;2023-06-22T05:31:17;94093.63;;;19.78;100.00
39739;BME280;25422;48.286;8.484;2023-06-22T05:33:46;94094.03;;;19.94;100.00
39739;BME280;25422;48.286;8.484;2023-06-22T05:36:11;94084.19;;;20.53;100.00
39739;BME280;25422;48.286;8.484;2023-06-22T05:38:38;94083.13;;;21.19;100.00
39739;BME280;25422;48.286;8.484;2023-06-22T05:41:04;94084.19;;;21.64;100.00
39739;BME280;25422;48.286;8.484;2023-06-22T05:43:33;94093.41;;;21.90;100.00
39739;BME280;25422;48.286;8.484;2023-06-22T05:45:59;94091.13;;;22.72;100.00
39739;BME280;25422;48.286;8.484;2023-06-22T05:48:25;94087.41;;;22.73;100.00
39739;BME280;25422;48.286;8.484;2023-06-22T05:50:50;94096.88;;;22.42;100.00
39739;BME280;25422;48.286;8.484;2023-06-22T05:53:16;94092.38;;;22.86;100.00
39739;BME280;25422;48.286;8.484;2023-06-22T05:55:41;94099.56;;;23.30;100.00
39739;BME280;25422;48.286;8.484;2023-06-22T05:58:08;94102.66;;;23.71;100.00
39739;BME280;25422;48.286;8.484;2023-06-22T06:00:34;94100.31;;;23.26;100.00
39739;BME280;25422;48.286;8.484;2023-06-22T06:02:59;94090.06;;;23.39;100.00
39739;BME280;25422;48.286;8.484;2023-06-22T06:05:29;94088.47;;;23.71;100.00
39739;BME280;25422;48.286;8.484;2023-06-22T06:07:55;94096.06;;;23.84;100.00
39739;BME280;25422;48.286;8.484;2023-06-22T06:10:20;94090.16;;;24.10;100.00
39739;BME280;25422;48.286;8.484;2023-06-22T06:12:46;94087.47;;;24.52;100.00
39739;BME280;25422;48.286;8.484;2023-06-22T06:15:11;94089.34;;;24.09;100.00
39739;BME280;25422;48.286;8.484;2023-06-22T06:17:45;94089.59;;;24.45;100.00
39739;BME280;25422;48.286;8.484;2023-06-22T06:20:10;94092.34;;;24.55;100.00
39739;BME280;25422;48.286;8.484;2023-06-22T06:22:37;94099.84;;;25.17;100.00
39739;BME280;25422;48.286;8.484;2023-06-22T06:25:02;94095.31;;;25.22;100.00
39739;BME280;25422;48.286;8.484;2023-06-22T06:27:28;94093.78;;;26.76;92.13
39739;BME280;25422;48.286;8.484;2023-06-22T06:29:54;94089.06;;;26.32;97.80
39739;BME280;25422;48.286;8.484;2023-06-22T06:32:19;94087.38;;;27.37;88.15
39739;BME280;25422;48.286;8.484;2023-06-22T06:34:45;94083.84;;;27.87;78.79
39739;BME280;25422;48.286;8.484;2023-06-22T06:37:11;94069.06;;;28.24;73.65
39739;BME280;25422;48.286;8.484;2023-06-22T06:39:36;94069.44;;;27.22;81.72
39739;BME280;25422;48.286;8.484;2023-06-22T06:42:02;94069.66;;;26.76;86.17
39739;BME280;25422;48.286;8.484;2023-06-22T06:44:28;94065.63;;;26.68;86.78
39739;BME280;25422;48.286;8.484;2023-06-22T06:46:54;94074.38;;;27.05;86.02
39739;BME280;25422;48.286;8.484;2023-06-22T06:49:19;94084.22;;;27.70;77.69
39739;BME280;25422;48.286;8.484;2023-06-22T06:51:45;94069.09;;;26.69;79.08
39739;BME280;25422;48.286;8.484;2023-06-22T06:54:10;94062.25;;;26.21;84.30
39739;BME280;25422;48.286;8.484;2023-06-22T06:56:35;94068.84;;;26.60;83.72
39739;BME280;25422;48.286;8.484;2023-06-22T06:59:01;94068.84;;;26.60;78.72
39739;BME280;25422;48.286;8.484;2023-06-22T07:01:26;94072.09;;;26.72;82.00
39739;BME280;25422;48.286;8.484;2023-06-22T07:03:52;94059.13;;;28.24;72.27
39739;BME280;25422;48.286;8.484;2023-06-22T07:06:18;94069.97;;;28.92;65.96
39739;BME280;25422;48.286;8.484;2023-06-22T07:08:44;94066.72;;;28.95;62.73
39739;BME280;25422;48.286;8.484;2023-06-22T07:11:09;94069.00;;;29.07;62.92
39739;BME280;25422;48.286;8.484;2023-06-22T07:13:34;94075.25;;;29.65;60.96
39739;BME280;25422;48.286;8.484;2023-06-22T07:16:00;94068.16;;;30.07;59.40
39739;BME280;25422;48.286;8.484;2023-06-22T07:18:25;94068.56;;;30.14;55.96
39739;BME280;25422;48.286;8.484;2023-06-22T07:20:52;94084.72;;;29.43;59.87
39739;BME280;25422;48.286;8.484;2023-06-22T07:23:17;94089.91;;;29.15;61.04
39739;BME280;25422;48.286;8.484;2023-06-22T07:25:42;94087.28;;;29.53;60.17
39739;BME280;25422;48.286;8.484;2023-06-22T07:28:08;94095.47;;;30.19;57.24
39739;BME280;25422;48.286;8.484;2023-06-22T07:30:33;94094.38;;;30.53;55.33
39739;BME280;25422;48.286;8.484;2023-06-22T07:32:59;94105.50;;;29.18;60.16
39739;BME280;25422;48.286;8.484;2023-06-22T07:35:32;94120.16;;;28.53;63.22
39739;BME280;25422;48.286;8.484;2023-06-22T07:37:57;94122.81;;;27.89;66.77
39739;BME280;25422;48.286;8.484;2023-06-22T07:40:23;94152.13;;;27.41;71.86
39739;BME280;25422;48.286;8.484;2023-06-22T07:42:48;94169.41;;;25.85;90.18
39739;BME280;25422;48.286;8.484;2023-06-22T07:45:17;94175.44;;;24.81;100.00
39739;BME280;25422;48.286;8.484;2023-06-22T07:47:43;94185.19;;;24.28;100.00
39739;BME280;25422;48.286;8.484;2023-06-22T07:50:09;94169.06;;;24.55;100.00
39739;BME280;25422;48.286;8.484;2023-06-22T07:52:34;94163.41;;;24.46;100.00
39739;BME280;25422;48.286;8.484;2023-06-22T07:55:00;94141.22;;;24.51;100.00
39739;BME280;25422;48.286;8.484;2023-06-22T07:57:26;94132.97;;;24.15;100.00
39739;BME280;25422;48.286;8.484;2023-06-22T07:59:57;94120.16;;;24.60;100.00
39739;BME280;25422;48.286;8.484;2023-06-22T08:02:24;94120.09;;;24.49;100.00
39739;BME280;25422;48.286;8.484;2023-06-22T08:04:49;94112.25;;;25.33;100.00
39739;BME280;25422;48.286;8.484;2023-06-22T08:07:14;94111.06;;;27.25;87.71
39739;BME280;25422;48.286;8.484;2023-06-22T08:09:46;94137.97;;;28.15;78.42
39739;BME280;25422;48.286;8.484;2023-06-22T08:12:12;94148.50;;;27.66;81.86
39739;BME280;25422;48.286;8.484;2023-06-22T08:14:38;94150.72;;;26.52;89.42
39739;BME280;25422;48.286;8.484;2023-06-22T08:17:04;94148.53;;;25.87;93.29
39739;BME280;25422;48.286;8.484;2023-06-22T08:19:29;94134.28;;;25.56;96.67
39739;BME280;25422;48.286;8.484;2023-06-22T08:21:55;94136.53;;;26.16;94.51
39739;BME280;25422;48.286;8.484;2023-06-22T08:24:20;94129.84;;;28.25;84.54
39739;BME280;25422;48.286;8.484;2023-06-22T08:26:46;94137.53;;;29.87;68.16
39739;BME280;25422;48.286;8.484;2023-06-22T08:29:11;94130.41;;;30.30;64.06
39739;BME280;25422;48.286;8.484;2023-06-22T08:31:36;94115.94;;;29.87;66.42
39739;BME280;25422;48.286;8.484;2023-06-22T08:34:02;94106.38;;;31.72;56.00
39739;BME280;25422;48.286;8.484;2023-06-22T08:36:27;94106.66;;;31.85;54.27
39739;BME280;25422;48.286;8.484;2023-06-22T08:39:03;94099.56;;;32.34;52.50
39739;BME280;25422;48.286;8.484;2023-06-22T08:41:29;94115.63;;;32.62;51.92
39739;BME280;25422;48.286;8.484;2023-06-22T08:43:54;94120.16;;;32.44;51.27
39739;BME280;25422;48.286;8.484;2023-06-22T08:46:20;94117.03;;;32.51;49.91
39739;BME280;25422;48.286;8.484;2023-06-22T08:48:49;94095.91;;;32.61;51.51
39739;BME280;25422;48.286;8.484;2023-06-22T08:51:15;94089.56;;;33.06;50.45
39739;BME280;25422;48.286;8.484;2023-06-22T08:53:41;94083.91;;;33.34;47.53
39739;BME280;25422;48.286;8.484;2023-06-22T08:56:06;94104.69;;;32.99;47.87
39739;BME280;25422;48.286;8.484;2023-06-22T08:58:31;94089.28;;;32.45;48.35
39739;BME280;25422;48.286;8.484;2023-06-22T09:00:57;94089.53;;;31.89;50.54
39739;BME280;25422;48.286;8.484;2023-06-22T09:03:26;94091.44;;;31.24;55.69
39739;BME280;25422;48.286;8.484;2023-06-22T09:05:52;94089.22;;;30.85;54.68
39739;BME280;25422;48.286;8.484;2023-06-22T09:08:17;94084.03;;;31.30;55.13
39739;BME280;25422;48.286;8.484;2023-06-22T09:10:43;94072.81;;;31.37;51.65
39739;BME280;25422;48.286;8.484;2023-06-22T09:13:08;94061.75;;;32.83;48.48
39739;BME280;25422;48.286;8.484;2023-06-22T09:15:34;94061.81;;;32.69;49.89
39739;BME280;25422;48.286;8.484;2023-06-22T09:18:00;94064.03;;;30.89;54.97
39739;BME280;25422;48.286;8.484;2023-06-22T09:20:25;94060.38;;;30.05;58.63
39739;BME280;25422;48.286;8.484;2023-06-22T09:22:50;94056.53;;;29.92;62.11
39739;BME280;25422;48.286;8.484;2023-06-22T09:25:16;94047.81;;;31.31;55.70
39739;BME280;25422;48.286;8.484;2023-06-22T09:27:44;94044.44;;;30.84;56.12
39739;BME280;25422;48.286;8.484;2023-06-22T09:30:09;94044.72;;;31.10;55.56
39739;BME280;25422;48.286;8.484;2023-06-22T09:32:35;94051.63;;;31.67;55.00
39739;BME280;25422;48.286;8.484;2023-06-22T09:35:04;94050.97;;;31.33;55.60
39739;BME280;25422;48.286;8.484;2023-06-22T09:37:36;94044.06;;;31.41;55.17
39739;BME280;25422;48.286;8.484;2023-06-22T09:40:02;94029.44;;;32.55;50.94
39739;BME280;25422;48.286;8.484;2023-06-22T09:42:33;94031.97;;;32.83;49.52
39739;BME280;25422;48.286;8.484;2023-06-22T09:44:59;94044.50;;;32.70;50.83
39739;BME280;25422;48.286;8.484;2023-06-22T09:47:27;94037.41;;;32.92;50.84
39739;BME280;25422;48.286;8.484;2023-06-22T09:49:52;94035.59;;;32.47;50.29
39739;BME280;25422;48.286;8.484;2023-06-22T09:52:20;94033.59;;;33.02;48.63
39739;BME280;25422;48.286;8.484;2023-06-22T09:54:46;94020.47;;;33.61;47.84
39739;BME280;25422;48.286;8.484;2023-06-22T09:57:11;94013.47;;;33.60;48.60
39739;BME280;25422;48.286;8.484;2023-06-22T09:59:37;94018.56;;;33.97;48.61
39739;BME280;25422;48.286;8.484;2023-06-22T10:02:03;94011.75;;;34.47;45.77
39739;BME280;25422;48.286;8.484;2023-06-22T10:04:28;94013.47;;;33.87;46.35
39739;BME280;25422;48.286;8.484;2023-06-22T10:06:54;94014.88;;;34.02;46.18
39739;BME280;25422;48.286;8.484;2023-06-22T10:09:19;94012.66;;;33.86;47.24
39739;BME280;25422;48.286;8.484;2023-06-22T10:11:44;94003.50;;;33.03;48.48
39739;BME280;25422;48.286;8.484;2023-06-22T10:14:10;94007.50;;;33.15;47.83
39739;BME280;25422;48.286;8.484;2023-06-22T10:16:36;94013.06;;;33.09;48.73
39739;BME280;25422;48.286;8.484;2023-06-22T10:19:01;94013.06;;;33.01;48.60
39739;BME280;25422;48.286;8.484;2023-06-22T10:21:27;94022.25;;;32.51;51.01
39739;BME280;25422;48.286;8.484;2023-06-22T10:23:53;94012.47;;;31.64;52.43
39739;BME280;25422;48.286;8.484;2023-06-22T10:26:19;94012.81;;;31.85;55.23
39739;BME280;25422;48.286;8.484;2023-06-22T10:28:44;94009.66;;;32.77;51.65
39739;BME280;25422;48.286;8.484;2023-06-22T10:31:10;94015.19;;;31.87;50.88
39739;BME280;25422;48.286;8.484;2023-06-22T10:33:35;94012.16;;;31.66;52.69
39739;BME280;25422;48.286;8.484;2023-06-22T10:36:01;94012.47;;;31.64;50.18
39739;BME280;25422;48.286;8.484;2023-06-22T10:38:26;94003.41;;;32.14;49.86
39739;BME280;25422;48.286;8.484;2023-06-22T10:40:51;94017.41;;;31.85;50.52
39739;BME280;25422;48.286;8.484;2023-06-22T10:43:17;94018.28;;;32.57;52.56
39739;BME280;25422;48.286;8.484;2023-06-22T10:45:42;94013.09;;;32.38;51.70
39739;BME280;25422;48.286;8.484;2023-06-22T10:48:08;94002.78;;;32.40;51.25
39739;BME280;25422;48.286;8.484;2023-06-22T10:50:33;94004.81;;;32.34;53.05
39739;BME280;25422;48.286;8.484;2023-06-22T10:52:58;93996.81;;;33.18;50.02
39739;BME280;25422;48.286;8.484;2023-06-22T10:55:24;94001.56;;;33.04;52.23
39739;BME280;25422;48.286;8.484;2023-06-22T10:57:49;94003.19;;;33.05;51.28
39739;BME280;25422;48.286;8.484;2023-06-22T11:00:15;94004.44;;;32.58;51.92
39739;BME280;25422;48.286;8.484;2023-06-22T11:02:41;94008.97;;;31.86;53.48
39739;BME280;25422;48.286;8.484;2023-06-22T11:05:06;94014.25;;;31.32;57.50
39739;BME280;25422;48.286;8.484;2023-06-22T11:07:32;94028.91;;;30.48;61.42
39739;BME280;25422;48.286;8.484;2023-06-22T11:09:58;94024.56;;;30.33;63.62
39739;BME280;25422;48.286;8.484;2023-06-22T11:12:24;94026.28;;;29.96;68.57
39739;BME280;25422;48.286;8.484;2023-06-22T11:14:49;94034.16;;;29.73;76.90
39739;BME280;25422;48.286;8.484;2023-06-22T11:17:18;94026.91;;;29.35;78.75
39739;BME280;25422;48.286;8.484;2023-06-22T11:19:44;94022.00;;;29.18;77.45
39739;BME280;25422;48.286;8.484;2023-06-22T11:22:09;94028.25;;;29.14;81.01
39739;BME280;25422;48.286;8.484;2023-06-22T11:24:35;94025.19;;;28.77;79.90
39739;BME280;25422;48.286;8.484;2023-06-22T11:27:00;94031.25;;;28.88;81.40
39739;BME280;25422;48.286;8.484;2023-06-22T11:29:26;94028.53;;;28.69;83.69
39739;BME280;25422;48.286;8.484;2023-06-22T11:31:51;94026.72;;;28.64;83.56
39739;BME280;25422;48.286;8.484;2023-06-22T11:34:17;94035.53;;;28.70;87.70
39739;BME280;25422;48.286;8.484;2023-06-22T11:36:44;94040.41;;;28.68;88.84
39739;BME280;25422;48.286;8.484;2023-06-22T11:39:10;94036.75;;;28.53;89.67
39739;BME280;25422;48.286;8.484;2023-06-22T11:41:36;94044.00;;;28.29;92.67
39739;BME280;25422;48.286;8.484;2023-06-22T11:44:01;94049.38;;;28.29;92.83
39739;BME280;25422;48.286;8.484;2023-06-22T11:46:26;94046.78;;;28.18;91.15
39739;BME280;25422;48.286;8.484;2023-06-22T11:48:52;94054.16;;;28.37;94.95
39739;BME280;25422;48.286;8.484;2023-06-22T11:51:17;94049.22;;;28.15;97.55
39739;BME280;25422;48.286;8.484;2023-06-22T11:53:43;94057.53;;;28.48;97.02
39739;BME280;25422;48.286;8.484;2023-06-22T11:56:08;94063.41;;;28.79;92.33
39739;BME280;25422;48.286;8.484;2023-06-22T11:58:33;94070.94;;;29.01;91.87
39739;BME280;25422;48.286;8.484;2023-06-22T12:00:59;94075.50;;;28.82;90.86
39739;BME280;25422;48.286;8.484;2023-06-22T12:03:24;94084.22;;;28.73;91.59
39739;BME280;25422;48.286;8.484;2023-06-22T12:05:51;94081.00;;;28.96;90.75
39739;BME280;25422;48.286;8.484;2023-06-22T12:08:17;94074.16;;;29.27;90.68
39739;BME280;25422;48.286;8.484;2023-06-22T12:10:43;94065.13;;;28.94;90.05
39739;BME280;25422;48.286;8.484;2023-06-22T12:13:09;94068.09;;;28.39;93.09
39739;BME280;25422;48.286;8.484;2023-06-22T12:15:34;94066.78;;;28.07;93.67
39739;BME280;25422;48.286;8.484;2023-06-22T12:18:00;94055.59;;;28.24;95.81
39739;BME280;25422;48.286;8.484;2023-06-22T12:20:26;94057.38;;;28.34;94.81
39739;BME280;25422;48.286;8.484;2023-06-22T12:22:52;94061.22;;;28.27;94.97
39739;BME280;25422;48.286;8.484;2023-06-22T12:25:17;94051.28;;;27.93;94.10
39739;BME280;25422;48.286;8.484;2023-06-22T12:27:43;94052.50;;;27.77;95.26
39739;BME280;25422;48.286;8.484;2023-06-22T12:30:08;94065.38;;;27.80;98.60
39739;BME280;25422;48.286;8.484;2023-06-22T12:32:34;94058.50;;;27.64;100.00
39739;BME280;25422;48.286;8.484;2023-06-22T12:34:59;94065.22;;;27.61;99.63
39739;BME280;25422;48.286;8.484;2023-06-22T12:37:25;94057.03;;;27.32;100.00
39739;BME280;25422;48.286;8.484;2023-06-22T12:39:50;94043.00;;;27.50;97.68
39739;BME280;25422;48.286;8.484;2023-06-22T12:42:16;94050.66;;;27.67;96.75
39739;BME280;25422;48.286;8.484;2023-06-22T12:44:42;94057.28;;;27.80;97.82
39739;BME280;25422;48.286;8.484;2023-06-22T12:47:08;94051.88;;;27.85;100.00
39739;BME280;25422;48.286;8.484;2023-06-22T12:49:34;94038.34;;;28.01;99.24
39739;BME280;25422;48.286;8.484;2023-06-22T12:52:00;94034.41;;;28.17;97.64
39739;BME280;25422;48.286;8.484;2023-06-22T12:54:25;94038.53;;;28.09;95.37
39739;BME280;25422;48.286;8.484;2023-06-22T12:56:51;94043.84;;;28.15;96.01